createdAt,value
2018-12-16T00:02:08.702Z,23.40
2018-12-16T00:04:37.467Z,24.87
2018-12-16T00:07:05.994Z,20.60
2018-12-16T00:09:34.626Z,24.13
2018-12-16T00:12:03.207Z,26.13
2018-12-16T00:14:31.750Z,25.73
2018-12-16T00:17:00.411Z,21.20
2018-12-16T00:19:29.070Z,22.83
2018-12-16T00:21:57.699Z,27.67
2018-12-16T00:24:26.341Z,22.90
2018-12-16T00:27:06.211Z,24.83
2018-12-16T00:29:34.721Z,25.50
2018-12-16T00:32:03.369Z,27.53
2018-12-16T00:34:31.847Z,20.63
2018-12-16T00:37:00.538Z,26.83
2018-12-16T00:39:29.026Z,25.80
2018-12-16T00:41:57.567Z,27.93
2018-12-16T00:44:26.199Z,28.57
2018-12-16T00:46:54.776Z,24.67
2018-12-16T00:49:23.406Z,26.70
2018-12-16T00:51:52.134Z,27.30
2018-12-16T00:54:21.063Z,28.67
2018-12-16T00:56:50.383Z,27.57
2018-12-16T00:59:19.427Z,31.70
2018-12-16T01:01:48.640Z,23.90
2018-12-16T01:04:17.567Z,28.90
2018-12-16T01:06:46.698Z,31.43
2018-12-16T01:09:15.902Z,32.67
2018-12-16T01:11:45.089Z,28.87
2018-12-16T01:14:13.774Z,30.43
2018-12-16T01:16:42.487Z,34.90
2018-12-16T01:19:10.983Z,30.70
2018-12-16T01:21:39.465Z,28.33
2018-12-16T01:24:07.976Z,26.17
2018-12-16T01:26:36.594Z,28.37
2018-12-16T01:29:05.224Z,32.63
2018-12-16T01:31:33.664Z,28.33
2018-12-16T01:34:02.151Z,28.07
2018-12-16T01:36:30.712Z,20.87
2018-12-16T01:38:59.244Z,27.03
2018-12-16T01:41:27.750Z,30.57
2018-12-16T01:43:56.270Z,28.97
2018-12-16T01:46:24.797Z,30.87
2018-12-16T01:48:53.300Z,26.50
2018-12-16T01:51:21.822Z,31.97
2018-12-16T01:53:50.376Z,28.30
2018-12-16T01:56:19.572Z,33.87
2018-12-16T01:58:48.772Z,31.43
2018-12-16T02:01:17.875Z,26.90
2018-12-16T02:03:48.035Z,28.90
2018-12-16T02:06:16.653Z,34.37
2018-12-16T02:08:45.689Z,33.67
2018-12-16T02:11:14.234Z,32.97
2018-12-16T02:13:42.708Z,32.47
2018-12-16T02:16:11.402Z,32.23
2018-12-16T02:18:39.881Z,31.30
2018-12-16T02:21:08.414Z,32.30
2018-12-16T02:23:36.936Z,32.63
2018-12-16T02:26:05.534Z,31.27
2018-12-16T02:28:34.124Z,30.80
2018-12-16T02:31:10.244Z,36.33
2018-12-16T02:33:39.068Z,30.43
2018-12-16T02:36:07.625Z,31.57
2018-12-16T02:38:43.049Z,31.47
2018-12-16T02:41:11.868Z,35.17
2018-12-16T02:43:40.962Z,33.43
2018-12-16T02:46:09.489Z,34.43
2018-12-16T02:48:38.143Z,31.10
2018-12-16T02:51:06.620Z,32.50
2018-12-16T02:53:35.116Z,33.67
2018-12-16T02:56:03.596Z,30.57
2018-12-16T02:58:32.147Z,32.60
2018-12-16T03:01:01.031Z,31.00
2018-12-16T03:03:29.544Z,33.40
2018-12-16T03:05:58.085Z,38.27
2018-12-16T03:08:26.630Z,34.83
2018-12-16T03:10:55.181Z,34.70
2018-12-16T03:13:23.870Z,34.33
2018-12-16T03:15:52.709Z,32.83
2018-12-16T03:18:21.197Z,30.23
2018-12-16T03:20:49.719Z,32.77
2018-12-16T03:23:18.311Z,27.27
2018-12-16T03:25:46.825Z,32.10
2018-12-16T03:28:17.737Z,32.73
2018-12-16T03:30:47.514Z,33.63
2018-12-16T03:33:16.566Z,36.37
2018-12-16T03:35:45.222Z,34.50
2018-12-16T03:38:13.883Z,34.43
2018-12-16T03:40:42.413Z,35.47
2018-12-16T03:43:11.216Z,40.10
2018-12-16T03:48:36.386Z,35.97
2018-12-16T03:51:04.862Z,35.17
2018-12-16T03:53:33.362Z,38.93
2018-12-16T03:56:01.921Z,39.17
2018-12-16T03:58:30.463Z,38.70
2018-12-16T04:00:58.954Z,38.73
2018-12-16T04:03:27.491Z,38.47
2018-12-16T04:05:56.003Z,41.10
2018-12-16T04:08:24.508Z,42.80
2018-12-16T04:10:53.019Z,36.70
2018-12-16T04:13:21.527Z,40.47
2018-12-16T04:15:50.013Z,41.77
2018-12-16T04:18:18.526Z,37.27
2018-12-16T04:20:47.034Z,42.10
2018-12-16T04:23:15.581Z,45.37
2018-12-16T04:25:44.084Z,42.53
2018-12-16T04:28:12.827Z,45.03
2018-12-16T04:30:41.360Z,51.67
2018-12-16T04:33:09.845Z,43.43
2018-12-16T04:35:38.414Z,49.53
2018-12-16T04:38:07.043Z,47.07
2018-12-16T04:40:35.525Z,46.47
2018-12-16T04:43:04.063Z,43.77
2018-12-16T04:45:32.594Z,48.17
2018-12-16T04:48:01.201Z,42.30
2018-12-16T04:50:29.739Z,47.27
2018-12-16T04:52:58.196Z,50.03
2018-12-16T04:55:26.729Z,44.03
2018-12-16T04:57:55.219Z,45.80
2018-12-16T05:00:23.824Z,44.90
2018-12-16T05:02:52.496Z,43.37
2018-12-16T05:05:21.033Z,42.13
2018-12-16T05:07:49.740Z,36.10
2018-12-16T05:10:27.402Z,42.73
2018-12-16T05:12:55.908Z,43.93
2018-12-16T05:15:24.678Z,39.67
2018-12-16T05:17:53.328Z,48.70
2018-12-16T05:20:21.854Z,43.17
2018-12-16T05:22:50.359Z,41.03
2018-12-16T05:25:18.853Z,40.03
2018-12-16T05:27:47.315Z,44.40
2018-12-16T05:30:15.868Z,37.07
2018-12-16T05:32:44.331Z,44.70
2018-12-16T05:35:12.869Z,38.37
2018-12-16T05:37:41.352Z,40.73
2018-12-16T05:40:10.058Z,44.20
2018-12-16T05:42:38.544Z,37.97
2018-12-16T05:45:07.285Z,34.97
2018-12-16T05:47:35.798Z,45.77
2018-12-16T05:50:05.034Z,40.17
2018-12-16T05:52:33.568Z,37.23
2018-12-16T05:55:02.068Z,46.37
2018-12-16T05:57:30.569Z,43.50
2018-12-16T05:59:59.068Z,35.70
2018-12-16T06:02:27.586Z,45.77
2018-12-16T06:04:56.100Z,46.23
2018-12-16T06:07:24.575Z,44.10
2018-12-16T06:09:53.182Z,48.30
2018-12-16T06:12:21.676Z,49.10
2018-12-16T06:14:50.146Z,48.27
2018-12-16T06:17:18.726Z,42.37
2018-12-16T06:19:47.471Z,44.30
2018-12-16T06:22:16.041Z,38.50
2018-12-16T06:24:44.552Z,42.47
2018-12-16T06:27:13.094Z,35.40
2018-12-16T06:29:42.517Z,45.73
2018-12-16T06:32:11.128Z,41.27
2018-12-16T06:34:40.215Z,37.17
2018-12-16T06:37:09.191Z,41.40
2018-12-16T06:39:41.820Z,41.60
2018-12-16T06:42:10.907Z,44.03
2018-12-16T06:44:39.459Z,40.20
2018-12-16T06:47:08.032Z,49.90
2018-12-16T06:49:36.513Z,46.93
2018-12-16T06:52:05.009Z,45.20
2018-12-16T06:54:33.508Z,41.77
2018-12-16T06:57:01.981Z,38.40
2018-12-16T06:59:30.516Z,40.43
2018-12-16T07:02:00.886Z,41.27
2018-12-16T07:04:29.660Z,40.87
2018-12-16T07:06:58.153Z,47.00
2018-12-16T07:09:26.680Z,36.77
2018-12-16T07:11:55.183Z,46.23
2018-12-16T07:14:23.948Z,43.57
2018-12-16T07:16:52.844Z,39.63
2018-12-16T07:19:21.376Z,41.80
2018-12-16T07:21:49.990Z,45.87
2018-12-16T07:24:18.514Z,41.07
2018-12-16T07:26:47.003Z,43.20
2018-12-16T07:29:15.575Z,40.60
2018-12-16T07:31:44.094Z,43.53
2018-12-16T07:34:12.615Z,43.80
2018-12-16T07:36:41.115Z,46.47
2018-12-16T07:39:09.657Z,45.60
2018-12-16T07:41:38.150Z,42.63
2018-12-16T07:44:06.707Z,48.97
2018-12-16T07:46:35.191Z,46.80
2018-12-16T07:49:03.775Z,42.03
2018-12-16T07:51:32.408Z,48.50
2018-12-16T07:54:00.982Z,47.83
2018-12-16T07:56:29.486Z,44.20
2018-12-16T07:58:58.502Z,47.37
2018-12-16T08:01:27.305Z,48.33
2018-12-16T08:03:55.891Z,50.93
2018-12-16T08:06:24.457Z,43.80
2018-12-16T08:08:53.059Z,46.97
2018-12-16T08:11:21.969Z,44.90
2018-12-16T08:13:50.634Z,46.40
2018-12-16T08:16:19.372Z,47.93
2018-12-16T08:18:47.925Z,44.90
2018-12-16T08:21:16.453Z,44.57
2018-12-16T08:23:45.045Z,41.93
2018-12-16T08:26:13.790Z,44.83
2018-12-16T08:28:42.701Z,47.23
2018-12-16T08:31:11.189Z,50.97
2018-12-16T08:33:39.716Z,50.57
2018-12-16T08:36:08.206Z,45.60
2018-12-16T08:38:36.725Z,43.37
2018-12-16T08:41:05.229Z,47.57
2018-12-16T08:43:33.716Z,48.63
2018-12-16T08:46:02.225Z,43.33
2018-12-16T08:48:30.735Z,36.90
2018-12-16T08:50:59.247Z,49.97
2018-12-16T08:53:27.728Z,47.00
2018-12-16T08:55:57.853Z,50.97
2018-12-16T08:58:26.674Z,45.20
2018-12-16T09:00:55.199Z,46.57
2018-12-16T09:03:23.702Z,47.50
2018-12-16T09:05:52.233Z,45.80
2018-12-16T09:08:20.795Z,50.17
2018-12-16T09:10:49.306Z,46.80
2018-12-16T09:13:17.829Z,46.83
2018-12-16T09:15:46.436Z,47.57
2018-12-16T09:18:15.516Z,46.10
2018-12-16T09:20:44.635Z,45.10
2018-12-16T09:23:14.195Z,44.17
2018-12-16T09:25:42.724Z,45.03
2018-12-16T09:28:11.216Z,43.30
2018-12-16T09:30:39.713Z,43.63
2018-12-16T09:33:08.240Z,44.23
2018-12-16T09:35:36.750Z,42.97
2018-12-16T09:38:05.263Z,41.47
2018-12-16T09:40:33.745Z,44.30
2018-12-16T09:43:02.267Z,47.97
2018-12-16T09:45:30.744Z,37.70
2018-12-16T09:47:59.445Z,38.37
2018-12-16T09:50:27.917Z,40.30
2018-12-16T09:52:56.439Z,42.43
2018-12-16T09:55:24.981Z,37.67
2018-12-16T09:57:53.493Z,39.40
2018-12-16T10:00:22.090Z,39.20
2018-12-16T10:02:50.562Z,35.00
2018-12-16T10:05:19.062Z,37.30
2018-12-16T10:07:47.538Z,36.17
2018-12-16T10:10:16.070Z,37.13
2018-12-16T10:12:44.588Z,33.00
2018-12-16T10:15:13.241Z,33.53
2018-12-16T10:17:41.756Z,37.13
2018-12-16T10:20:11.627Z,36.87
2018-12-16T10:22:40.283Z,33.23
2018-12-16T10:25:08.849Z,34.10
2018-12-16T10:27:37.383Z,35.10
2018-12-16T10:30:07.783Z,29.80
2018-12-16T10:32:36.969Z,29.67
2018-12-16T10:35:06.010Z,38.07
2018-12-16T10:37:34.611Z,36.93
2018-12-16T10:40:03.428Z,35.53
2018-12-16T10:42:31.939Z,35.37
2018-12-16T10:45:00.465Z,32.27
2018-12-16T10:47:29.007Z,32.37
2018-12-16T10:49:57.550Z,34.33
2018-12-16T10:52:26.037Z,35.07
2018-12-16T10:54:58.316Z,35.10
2018-12-16T11:00:01.865Z,34.07
2018-12-16T11:02:30.356Z,34.97
2018-12-16T11:04:58.892Z,30.67
2018-12-16T11:07:27.371Z,34.20
2018-12-16T11:09:56.025Z,33.03
2018-12-16T11:12:24.605Z,30.90
2018-12-16T11:14:53.111Z,28.60
2018-12-16T11:17:21.644Z,38.83
2018-12-16T11:19:50.270Z,34.13
2018-12-16T11:22:18.739Z,32.30
2018-12-16T11:24:47.267Z,30.47
2018-12-16T11:27:15.906Z,33.67
2018-12-16T11:29:44.446Z,31.17
2018-12-16T11:32:13.028Z,30.30
2018-12-16T11:34:41.563Z,40.23
2018-12-16T11:37:10.069Z,29.20
2018-12-16T11:39:38.589Z,32.70
2018-12-16T11:42:07.098Z,35.00
2018-12-16T11:44:35.760Z,35.37
2018-12-16T11:47:04.423Z,34.77
2018-12-16T11:49:32.893Z,33.30
2018-12-16T11:52:01.455Z,35.23
2018-12-16T11:54:30.094Z,35.47
2018-12-16T11:56:58.637Z,31.67
2018-12-16T11:59:27.196Z,31.07
2018-12-16T12:01:55.693Z,33.47
2018-12-16T12:04:24.224Z,29.93
2018-12-16T12:06:52.791Z,34.93
2018-12-16T12:09:21.386Z,31.93
2018-12-16T12:11:49.909Z,34.60
2018-12-16T12:14:18.453Z,36.27
2018-12-16T12:16:47.029Z,36.33
2018-12-16T12:19:15.519Z,31.60
2018-12-16T12:21:44.315Z,36.13
2018-12-16T12:24:12.922Z,32.67
2018-12-16T12:26:41.500Z,34.07
2018-12-16T12:29:10.023Z,34.30
2018-12-16T12:31:38.577Z,30.20
2018-12-16T12:34:07.210Z,34.47
2018-12-16T12:36:35.697Z,30.87
2018-12-16T12:39:06.271Z,31.90
2018-12-16T12:41:34.851Z,36.27
2018-12-16T12:44:03.349Z,36.77
2018-12-16T12:46:31.893Z,37.57
2018-12-16T12:49:00.402Z,30.67
2018-12-16T12:51:28.930Z,36.67
2018-12-16T12:53:57.439Z,32.70
2018-12-16T12:56:25.938Z,32.00
2018-12-16T12:58:54.466Z,33.20
2018-12-16T13:01:23.048Z,34.27
2018-12-16T13:03:51.514Z,33.90
2018-12-16T13:06:20.038Z,33.73
2018-12-16T13:08:48.559Z,38.43
2018-12-16T13:11:17.120Z,32.43
2018-12-16T13:13:45.666Z,34.20
2018-12-16T13:16:14.219Z,39.87
2018-12-16T13:18:42.750Z,34.57
2018-12-16T13:21:11.317Z,33.80
2018-12-16T13:23:39.936Z,41.07
2018-12-16T13:26:08.874Z,34.80
2018-12-16T13:28:37.391Z,33.77
2018-12-16T13:31:05.921Z,37.07
2018-12-16T13:33:34.673Z,42.43
2018-12-16T13:36:03.252Z,36.03
2018-12-16T13:38:31.762Z,39.10
2018-12-16T13:41:00.348Z,38.63
2018-12-16T13:43:28.841Z,40.03
2018-12-16T13:45:57.363Z,37.30
2018-12-16T13:48:25.871Z,45.17
2018-12-16T13:50:54.335Z,37.87
2018-12-16T13:53:22.841Z,34.93
2018-12-16T13:55:51.423Z,33.10
2018-12-16T13:58:20.053Z,34.77
2018-12-16T14:00:48.659Z,40.37
2018-12-16T14:03:17.173Z,39.00
2018-12-16T14:05:46.736Z,36.10
2018-12-16T14:08:16.007Z,40.77
2018-12-16T14:10:44.635Z,37.00
2018-12-16T14:13:13.143Z,37.77
2018-12-16T14:15:41.691Z,40.63
2018-12-16T14:18:10.549Z,42.30
2018-12-16T14:20:39.288Z,40.53
2018-12-16T14:23:07.777Z,44.67
2018-12-16T14:25:36.239Z,51.67
2018-12-16T14:28:04.784Z,41.07
2018-12-16T14:30:33.235Z,38.33
2018-12-16T14:33:01.705Z,38.30
2018-12-16T14:35:30.506Z,42.13
2018-12-16T14:37:59.419Z,40.43
2018-12-16T14:40:30.938Z,40.33
2018-12-16T14:42:59.435Z,41.43
2018-12-16T14:45:27.907Z,43.33
2018-12-16T14:47:56.428Z,39.80
2018-12-16T14:50:24.907Z,43.43
2018-12-16T14:52:53.396Z,39.07
2018-12-16T14:55:21.855Z,42.90
2018-12-16T14:57:50.946Z,40.93
2018-12-16T15:00:19.368Z,40.43
2018-12-16T15:02:47.943Z,51.50
2018-12-16T15:05:16.376Z,50.13
2018-12-16T15:07:45.486Z,48.90
2018-12-16T15:10:14.049Z,45.50
2018-12-16T15:12:42.577Z,47.17
2018-12-16T15:15:11.319Z,46.53
2018-12-16T15:17:42.984Z,47.83
2018-12-16T15:20:10.495Z,44.93
2018-12-16T15:22:38.997Z,45.13
2018-12-16T15:25:07.501Z,41.23
2018-12-16T15:27:36.079Z,46.07
2018-12-16T15:30:06.514Z,42.23
2018-12-16T15:32:35.064Z,42.73
2018-12-16T15:35:03.703Z,45.97
2018-12-16T15:37:32.223Z,43.13
2018-12-16T15:40:00.704Z,48.73
2018-12-16T15:42:29.230Z,40.50
2018-12-16T15:44:57.674Z,44.03
2018-12-16T15:47:26.229Z,50.77
2018-12-16T15:49:54.776Z,41.63
2018-12-16T15:52:23.241Z,43.70
2018-12-16T15:54:51.705Z,42.83
2018-12-16T15:57:20.190Z,44.77
2018-12-16T15:59:48.735Z,44.97
2018-12-16T16:02:17.197Z,37.27
2018-12-16T16:04:45.750Z,44.40
2018-12-16T16:07:14.297Z,41.70
2018-12-16T16:09:42.782Z,41.67
2018-12-16T16:12:11.330Z,46.57
2018-12-16T16:14:39.795Z,42.67
2018-12-16T16:17:08.256Z,41.40
2018-12-16T16:19:37.105Z,38.47
2018-12-16T16:22:05.717Z,44.53
2018-12-16T16:24:34.391Z,43.50
2018-12-16T16:27:02.889Z,42.03
2018-12-16T16:29:31.400Z,41.20
2018-12-16T16:31:59.859Z,40.70
2018-12-16T16:34:28.657Z,43.93
2018-12-16T16:36:57.143Z,48.37
2018-12-16T16:39:25.637Z,41.73
2018-12-16T16:41:54.111Z,47.30
2018-12-16T16:44:22.629Z,45.83
2018-12-16T16:46:51.078Z,40.83
2018-12-16T16:49:19.570Z,39.73
2018-12-16T16:51:48.004Z,47.07
2018-12-16T16:54:16.623Z,42.77
2018-12-16T16:56:45.151Z,43.43
2018-12-16T16:59:13.638Z,41.37
2018-12-16T17:01:42.225Z,45.77
2018-12-16T17:04:10.939Z,43.00
2018-12-16T17:06:39.629Z,45.97
2018-12-16T17:09:10.050Z,47.73
2018-12-16T17:11:38.779Z,41.33
2018-12-16T17:14:07.578Z,43.53
2018-12-16T17:16:36.133Z,49.27
2018-12-16T17:19:04.801Z,45.43
2018-12-16T17:21:33.623Z,45.33
2018-12-16T17:24:02.245Z,44.60
2018-12-16T17:26:30.745Z,44.53
2018-12-16T17:28:59.194Z,42.90
2018-12-16T17:31:27.786Z,47.23
2018-12-16T17:33:56.275Z,53.77
2018-12-16T17:36:25.166Z,48.90
2018-12-16T17:38:53.726Z,44.43
2018-12-16T17:41:22.352Z,47.90
2018-12-16T17:43:51.029Z,47.17
2018-12-16T17:46:19.773Z,45.83
2018-12-16T17:48:48.259Z,43.37
2018-12-16T17:51:16.867Z,48.50
2018-12-16T17:53:45.383Z,49.93
2018-12-16T17:56:13.999Z,42.63
2018-12-16T17:58:42.949Z,45.83
2018-12-16T18:01:11.629Z,47.37
2018-12-16T18:03:40.280Z,48.43
2018-12-16T18:06:08.959Z,44.13
2018-12-16T18:08:37.690Z,45.30
2018-12-16T18:11:06.454Z,49.20
2018-12-16T18:13:35.057Z,45.67
2018-12-16T18:16:03.649Z,47.53
2018-12-16T18:18:32.384Z,48.33
2018-12-16T18:21:00.867Z,44.10
2018-12-16T18:23:29.792Z,53.23
2018-12-16T18:25:59.944Z,55.80
2018-12-16T18:28:28.490Z,51.03
2018-12-16T18:30:56.968Z,60.13
2018-12-16T18:33:25.671Z,44.87
2018-12-16T18:35:54.240Z,51.07
2018-12-16T18:38:22.747Z,48.20
2018-12-16T18:40:51.246Z,43.83
2018-12-16T18:43:19.919Z,40.83
2018-12-16T18:45:48.548Z,44.63
2018-12-16T18:48:17.113Z,46.30
2018-12-16T18:50:45.632Z,41.70
2018-12-16T18:53:14.131Z,44.13
2018-12-16T18:55:42.839Z,46.37
2018-12-16T18:58:11.329Z,42.30
2018-12-16T19:00:39.831Z,46.80
2018-12-16T19:03:08.480Z,47.23
2018-12-16T19:05:37.068Z,43.17
2018-12-16T19:08:05.641Z,44.47
2018-12-16T19:10:34.493Z,45.37
2018-12-16T19:13:02.968Z,42.63
2018-12-16T19:15:31.429Z,42.03
2018-12-16T19:17:59.939Z,47.93
2018-12-16T19:20:28.424Z,43.40
2018-12-16T19:22:56.914Z,45.70
2018-12-16T19:25:25.441Z,42.10
2018-12-16T19:27:53.968Z,45.20
2018-12-16T19:30:22.605Z,50.63
2018-12-16T19:32:51.334Z,48.43
2018-12-16T19:35:19.875Z,45.57
2018-12-16T19:37:48.587Z,44.40
2018-12-16T19:40:17.354Z,45.73
2018-12-16T19:42:45.918Z,43.47
2018-12-16T19:45:14.368Z,54.13
2018-12-16T19:47:49.414Z,46.13
2018-12-16T19:50:13.452Z,47.67
2018-12-16T19:52:41.981Z,48.47
2018-12-16T19:55:10.474Z,47.83
2018-12-16T19:57:38.988Z,49.90
2018-12-16T20:00:07.852Z,42.50
2018-12-16T20:02:36.371Z,40.90
2018-12-16T20:05:05.617Z,44.00
2018-12-16T20:07:34.437Z,49.40
2018-12-16T20:10:03.036Z,46.10
2018-12-16T20:12:31.590Z,50.83
2018-12-16T20:15:00.088Z,48.03
2018-12-16T20:17:28.583Z,43.87
2018-12-16T20:19:57.068Z,45.40
2018-12-16T20:22:25.582Z,44.63
2018-12-16T20:24:54.364Z,44.40
2018-12-16T20:27:22.962Z,44.60
2018-12-16T20:29:51.719Z,46.50
2018-12-16T20:32:20.366Z,47.37
2018-12-16T20:34:49.056Z,42.13
2018-12-16T20:37:20.301Z,46.53
2018-12-16T20:39:48.884Z,48.60
2018-12-16T20:42:17.895Z,41.57
2018-12-16T20:44:46.408Z,43.57
2018-12-16T20:47:15.432Z,44.33
2018-12-16T20:49:43.941Z,44.70
2018-12-16T20:52:13.010Z,41.57
2018-12-16T20:54:42.145Z,38.47
2018-12-16T20:57:18.681Z,42.13
2018-12-16T20:59:43.110Z,43.87
2018-12-16T21:02:13.461Z,39.27
2018-12-16T21:04:48.494Z,41.27
2018-12-16T21:07:17.321Z,40.43
2018-12-16T21:09:45.934Z,34.93
2018-12-16T21:12:22.094Z,46.10
2018-12-16T21:14:56.139Z,42.77
2018-12-16T21:17:30.092Z,41.53
2018-12-16T21:19:58.723Z,41.17
2018-12-16T21:22:27.463Z,39.53
2018-12-16T21:24:58.167Z,37.73
2018-12-16T21:27:31.371Z,44.33
2018-12-16T21:30:00.192Z,39.70
2018-12-16T21:32:30.402Z,38.07
2018-12-16T21:34:59.614Z,39.93
2018-12-16T21:37:29.443Z,44.30
2018-12-16T21:39:58.165Z,41.30
2018-12-16T21:42:26.929Z,38.33
2018-12-16T21:44:55.608Z,41.13
2018-12-16T21:47:24.597Z,36.83
2018-12-16T21:49:53.354Z,38.40
2018-12-16T21:52:22.254Z,39.07
2018-12-16T21:54:51.012Z,42.60
2018-12-16T21:57:19.776Z,41.67
2018-12-16T21:59:48.481Z,43.50
2018-12-16T22:02:22.754Z,39.23
2018-12-16T22:04:52.611Z,39.20
2018-12-16T22:07:22.223Z,41.50
2018-12-16T22:09:51.010Z,40.27
2018-12-16T22:12:19.498Z,39.30
2018-12-16T22:14:48.021Z,38.00
2018-12-16T22:17:16.506Z,37.77
2018-12-16T22:19:45.012Z,40.10
2018-12-16T22:22:13.541Z,39.23
2018-12-16T22:24:42.066Z,38.10
2018-12-16T22:27:10.578Z,39.77
2018-12-16T22:29:39.114Z,37.37
2018-12-16T22:32:07.677Z,42.03
2018-12-16T22:34:36.326Z,41.87
2018-12-16T22:37:05.082Z,42.00
2018-12-16T22:39:35.359Z,41.33
2018-12-16T22:42:04.728Z,35.10
2018-12-16T22:44:33.777Z,41.00
2018-12-16T22:47:03.507Z,39.70
2018-12-16T22:49:33.142Z,39.90
2018-12-16T22:52:01.746Z,43.13
2018-12-16T22:54:31.352Z,38.50
2018-12-16T22:57:02.295Z,42.00
2018-12-16T22:59:31.022Z,39.30
2018-12-16T23:01:59.699Z,43.30
2018-12-16T23:04:28.413Z,37.20
2018-12-16T23:06:58.246Z,42.07
2018-12-16T23:09:27.068Z,42.20
2018-12-16T23:11:56.382Z,43.23
2018-12-16T23:14:25.168Z,41.40
2018-12-16T23:16:53.929Z,43.37
2018-12-16T23:19:23.674Z,43.40
2018-12-16T23:21:53.390Z,38.80
2018-12-16T23:24:23.041Z,45.70
2018-12-16T23:26:51.994Z,44.07
2018-12-16T23:29:20.919Z,39.63
2018-12-16T23:31:49.632Z,42.47
2018-12-16T23:34:18.997Z,39.53
2018-12-16T23:36:47.826Z,43.30
2018-12-16T23:39:16.959Z,44.30
2018-12-16T23:41:46.677Z,41.07
2018-12-16T23:44:15.589Z,41.83
2018-12-16T23:46:45.444Z,41.80
2018-12-16T23:49:14.153Z,39.77
2018-12-16T23:51:42.988Z,36.73
2018-12-16T23:54:11.759Z,42.50
2018-12-16T23:56:40.568Z,41.03
2018-12-16T23:59:09.299Z,43.17
